sensor_id;sensor_type;location;lat;lon;timestamp;pressure;altitude;pressure_sealevel;temperature;humidity
49973;BME280;35865;49.798;10.968;2022-08-01T00:00:09;98032.63;;;19.08;96.69
49973;BME280;35865;49.798;10.968;2022-08-01T00:02:36;98019.50;;;19.07;97.61
49973;BME280;35865;49.798;10.968;2022-08-01T00:05:04;98029.69;;;18.96;99.74
49973;BME280;35865;49.798;10.968;2022-08-01T00:07:31;98024.44;;;18.91;100.00
49973;BME280;35865;49.798;10.968;2022-08-01T00:09:57;98021.97;;;18.81;100.00
49973;BME280;35865;49.798;10.968;2022-08-01T00:12:25;98026.34;;;18.76;100.00
49973;BME280;35865;49.798;10.968;2022-08-01T00:14:51;98033.75;;;18.71;100.00
49973;BME280;35865;49.798;10.968;2022-08-01T00:17:18;98029.25;;;18.66;100.00
49973;BME280;35865;49.798;10.968;2022-08-01T00:19:44;98028.47;;;18.66;100.00
49973;BME280;35865;49.798;10.968;2022-08-01T00:22:10;98028.38;;;18.71;100.00
49973;BME280;35865;49.798;10.968;2022-08-01T00:24:37;98031.94;;;18.66;100.00
49973;BME280;35865;49.798;10.968;2022-08-01T00:27:04;98034.78;;;18.61;100.00
49973;BME280;35865;49.798;10.968;2022-08-01T00:29:31;98034.16;;;18.64;100.00
49973;BME280;35865;49.798;10.968;2022-08-01T00:31:58;98045.88;;;18.68;100.00
49973;BME280;35865;49.798;10.968;2022-08-01T00:34:25;98055.31;;;18.80;100.00
49973;BME280;35865;49.798;10.968;2022-08-01T00:36:52;98056.19;;;18.89;100.00
49973;BME280;35865;49.798;10.968;2022-08-01T00:39:18;98059.16;;;19.01;100.00
49973;BME280;35865;49.798;10.968;2022-08-01T00:41:45;98054.94;;;19.09;100.00
49973;BME280;35865;49.798;10.968;2022-08-01T00:44:11;98063.28;;;19.07;100.00
49973;BME280;35865;49.798;10.968;2022-08-01T00:46:39;98052.41;;;19.13;100.00
49973;BME280;35865;49.798;10.968;2022-08-01T00:49:05;98058.22;;;19.06;100.00
49973;BME280;35865;49.798;10.968;2022-08-01T00:51:32;98057.91;;;19.07;100.00
49973;BME280;35865;49.798;10.968;2022-08-01T00:53:59;98050.03;;;19.11;100.00
49973;BME280;35865;49.798;10.968;2022-08-01T00:56:27;98047.16;;;19.07;100.00
49973;BME280;35865;49.798;10.968;2022-08-01T00:58:55;98052.78;;;18.97;100.00
49973;BME280;35865;49.798;10.968;2022-08-01T01:01:21;98053.44;;;18.80;100.00
49973;BME280;35865;49.798;10.968;2022-08-01T01:03:50;98052.25;;;18.72;100.00
49973;BME280;35865;49.798;10.968;2022-08-01T01:06:28;98050.28;;;18.64;100.00
49973;BME280;35865;49.798;10.968;2022-08-01T01:09:04;98045.50;;;18.61;100.00
49973;BME280;35865;49.798;10.968;2022-08-01T01:11:37;98048.69;;;18.63;100.00
49973;BME280;35865;49.798;10.968;2022-08-01T01:14:18;98047.09;;;18.62;100.00
49973;BME280;35865;49.798;10.968;2022-08-01T01:16:48;98047.97;;;18.71;100.00
49973;BME280;35865;49.798;10.968;2022-08-01T01:19:22;98048.63;;;18.77;100.00
49973;BME280;35865;49.798;10.968;2022-08-01T01:22:06;98054.31;;;18.75;100.00
49973;BME280;35865;49.798;10.968;2022-08-01T01:24:45;98051.56;;;18.67;100.00
49973;BME280;35865;49.798;10.968;2022-08-01T01:27:18;98051.19;;;18.59;100.00
49973;BME280;35865;49.798;10.968;2022-08-01T01:29:54;98049.69;;;18.53;100.00
49973;BME280;35865;49.798;10.968;2022-08-01T01:32:28;98057.06;;;18.48;100.00
49973;BME280;35865;49.798;10.968;2022-08-01T01:34:59;98058.78;;;18.43;100.00
49973;BME280;35865;49.798;10.968;2022-08-01T01:37:29;98054.72;;;18.32;100.00
49973;BME280;35865;49.798;10.968;2022-08-01T01:39:59;98057.28;;;18.37;100.00
49973;BME280;35865;49.798;10.968;2022-08-01T01:42:28;98055.81;;;18.31;100.00
49973;BME280;35865;49.798;10.968;2022-08-01T01:44:58;98053.81;;;18.23;100.00
49973;BME280;35865;49.798;10.968;2022-08-01T01:47:25;98061.28;;;18.12;100.00
49973;BME280;35865;49.798;10.968;2022-08-01T01:49:55;98059.00;;;18.05;100.00
49973;BME280;35865;49.798;10.968;2022-08-01T01:52:23;98062.69;;;18.09;100.00
49973;BME280;35865;49.798;10.968;2022-08-01T01:54:51;98071.34;;;18.06;100.00
49973;BME280;35865;49.798;10.968;2022-08-01T01:57:19;98065.44;;;18.04;100.00
49973;BME280;35865;49.798;10.968;2022-08-01T01:59:47;98072.22;;;18.16;100.00
49973;BME280;35865;49.798;10.968;2022-08-01T02:02:18;98063.56;;;18.19;100.00
49973;BME280;35865;49.798;10.968;2022-08-01T02:04:46;98068.72;;;18.15;100.00
49973;BME280;35865;49.798;10.968;2022-08-01T02:07:17;98066.34;;;18.14;100.00
49973;BME280;35865;49.798;10.968;2022-08-01T02:09:45;98072.22;;;18.16;100.00
49973;BME280;35865;49.798;10.968;2022-08-01T02:12:14;98063.19;;;18.12;100.00
49973;BME280;35865;49.798;10.968;2022-08-01T02:14:43;98077.31;;;18.03;100.00
49973;BME280;35865;49.798;10.968;2022-08-01T02:17:12;98076.31;;;17.99;100.00
49973;BME280;35865;49.798;10.968;2022-08-01T02:19:42;98082.66;;;18.03;100.00
49973;BME280;35865;49.798;10.968;2022-08-01T02:22:11;98086.13;;;17.90;100.00
49973;BME280;35865;49.798;10.968;2022-08-01T02:24:40;98079.75;;;17.86;100.00
49973;BME280;35865;49.798;10.968;2022-08-01T02:27:10;98077.22;;;17.75;100.00
49973;BME280;35865;49.798;10.968;2022-08-01T02:29:42;98087.31;;;17.84;100.00
49973;BME280;35865;49.798;10.968;2022-08-01T02:32:12;98082.09;;;17.73;100.00
49973;BME280;35865;49.798;10.968;2022-08-01T02:34:42;98094.69;;;17.73;100.00
49973;BME280;35865;49.798;10.968;2022-08-01T02:37:12;98091.41;;;17.62;100.00
49973;BME280;35865;49.798;10.968;2022-08-01T02:39:40;98089.91;;;17.56;100.00
49973;BME280;35865;49.798;10.968;2022-08-01T02:42:07;98096.94;;;17.52;100.00
49973;BME280;35865;49.798;10.968;2022-08-01T02:44:37;98097.03;;;17.47;100.00
49973;BME280;35865;49.798;10.968;2022-08-01T02:47:06;98100.31;;;17.44;100.00
49973;BME280;35865;49.798;10.968;2022-08-01T02:49:35;98089.34;;;17.40;100.00
49973;BME280;35865;49.798;10.968;2022-08-01T02:52:07;98094.22;;;17.38;100.00
49973;BME280;35865;49.798;10.968;2022-08-01T02:54:35;98101.19;;;17.39;100.00
49973;BME280;35865;49.798;10.968;2022-08-01T02:57:03;98098.88;;;17.32;100.00
49973;BME280;35865;49.798;10.968;2022-08-01T02:59:32;98102.22;;;17.24;100.00
49973;BME280;35865;49.798;10.968;2022-08-01T03:02:01;98101.78;;;17.17;100.00
49973;BME280;35865;49.798;10.968;2022-08-01T03:04:30;98099.19;;;17.12;100.00
49973;BME280;35865;49.798;10.968;2022-08-01T03:06:57;98109.47;;;17.04;100.00
49973;BME280;35865;49.798;10.968;2022-08-01T03:09:27;98106.78;;;17.04;100.00
49973;BME280;35865;49.798;10.968;2022-08-01T03:11:57;98102.53;;;17.03;100.00
49973;BME280;35865;49.798;10.968;2022-08-01T03:14:25;98103.69;;;16.97;100.00
49973;BME280;35865;49.798;10.968;2022-08-01T03:16:53;98103.25;;;16.90;100.00
49973;BME280;35865;49.798;10.968;2022-08-01T03:19:23;98104.91;;;16.86;100.00
49973;BME280;35865;49.798;10.968;2022-08-01T03:21:51;98107.38;;;16.82;100.00
49973;BME280;35865;49.798;10.968;2022-08-01T03:24:18;98107.16;;;16.79;100.00
49973;BME280;35865;49.798;10.968;2022-08-01T03:26:47;98120.47;;;16.84;100.00
49973;BME280;35865;49.798;10.968;2022-08-01T03:29:17;98115.84;;;16.70;100.00
49973;BME280;35865;49.798;10.968;2022-08-01T03:31:46;98117.00;;;16.64;100.00
49973;BME280;35865;49.798;10.968;2022-08-01T03:34:14;98117.53;;;16.61;100.00
49973;BME280;35865;49.798;10.968;2022-08-01T03:36:46;98120.28;;;16.56;100.00
49973;BME280;35865;49.798;10.968;2022-08-01T03:39:14;98112.53;;;16.54;100.00
49973;BME280;35865;49.798;10.968;2022-08-01T03:41:48;98118.91;;;16.58;100.00
49973;BME280;35865;49.798;10.968;2022-08-01T03:44:20;98123.47;;;16.58;100.00
49973;BME280;35865;49.798;10.968;2022-08-01T03:46:53;98123.19;;;16.60;100.00
49973;BME280;35865;49.798;10.968;2022-08-01T03:49:23;98125.03;;;16.59;100.00
49973;BME280;35865;49.798;10.968;2022-08-01T03:51:52;98133.34;;;16.63;100.00
49973;BME280;35865;49.798;10.968;2022-08-01T03:54:21;98135.44;;;16.66;100.00
49973;BME280;35865;49.798;10.968;2022-08-01T03:56:51;98133.19;;;16.73;100.00
49973;BME280;35865;49.798;10.968;2022-08-01T03:59:19;98135.03;;;16.78;100.00
49973;BME280;35865;49.798;10.968;2022-08-01T04:01:47;98132.78;;;16.85;100.00
49973;BME280;35865;49.798;10.968;2022-08-01T04:04:14;98138.56;;;16.92;100.00
49973;BME280;35865;49.798;10.968;2022-08-01T04:06:40;98143.00;;;17.02;100.00
49973;BME280;35865;49.798;10.968;2022-08-01T04:09:09;98143.94;;;17.11;100.00
49973;BME280;35865;49.798;10.968;2022-08-01T04:11:36;98153.66;;;17.26;100.00
49973;BME280;35865;49.798;10.968;2022-08-01T04:14:03;98154.16;;;17.47;100.00
49973;BME280;35865;49.798;10.968;2022-08-01T04:16:30;98145.81;;;17.49;100.00
49973;BME280;35865;49.798;10.968;2022-08-01T04:18:56;98150.63;;;17.66;100.00
49973;BME280;35865;49.798;10.968;2022-08-01T04:21:25;98147.88;;;17.71;100.00
49973;BME280;35865;49.798;10.968;2022-08-01T04:23:53;98161.41;;;17.80;100.00
49973;BME280;35865;49.798;10.968;2022-08-01T04:26:21;98161.97;;;17.76;100.00
49973;BME280;35865;49.798;10.968;2022-08-01T04:28:49;98164.34;;;17.97;100.00
49973;BME280;35865;49.798;10.968;2022-08-01T04:31:19;98153.53;;;18.02;100.00
49973;BME280;35865;49.798;10.968;2022-08-01T04:33:48;98157.69;;;18.08;100.00
49973;BME280;35865;49.798;10.968;2022-08-01T04:36:18;98155.72;;;18.14;100.00
49973;BME280;35865;49.798;10.968;2022-08-01T04:38:48;98169.66;;;18.30;100.00
49973;BME280;35865;49.798;10.968;2022-08-01T04:41:16;98165.28;;;18.34;100.00
49973;BME280;35865;49.798;10.968;2022-08-01T04:43:43;98172.03;;;18.46;100.00
49973;BME280;35865;49.798;10.968;2022-08-01T04:46:12;98176.03;;;18.62;100.00
49973;BME280;35865;49.798;10.968;2022-08-01T04:48:41;98171.06;;;18.69;100.00
49973;BME280;35865;49.798;10.968;2022-08-01T04:51:12;98173.44;;;18.85;100.00
49973;BME280;35865;49.798;10.968;2022-08-01T04:53:40;98182.88;;;18.96;100.00
49973;BME280;35865;49.798;10.968;2022-08-01T04:56:07;98176.91;;;19.13;100.00
49973;BME280;35865;49.798;10.968;2022-08-01T04:58:33;98174.16;;;19.27;100.00
49973;BME280;35865;49.798;10.968;2022-08-01T05:01:00;98181.69;;;19.39;100.00
49973;BME280;35865;49.798;10.968;2022-08-01T05:03:26;98177.06;;;19.53;100.00
49973;BME280;35865;49.798;10.968;2022-08-01T05:05:54;98177.09;;;19.62;100.00
49973;BME280;35865;49.798;10.968;2022-08-01T05:08:21;98184.44;;;19.70;100.00
49973;BME280;35865;49.798;10.968;2022-08-01T05:10:47;98178.41;;;19.65;100.00
49973;BME280;35865;49.798;10.968;2022-08-01T05:13:14;98189.09;;;19.56;100.00
49973;BME280;35865;49.798;10.968;2022-08-01T05:15:40;98193.19;;;19.53;100.00
49973;BME280;35865;49.798;10.968;2022-08-01T05:18:07;98193.19;;;19.53;100.00
49973;BME280;35865;49.798;10.968;2022-08-01T05:20:33;98197.78;;;19.53;100.00
49973;BME280;35865;49.798;10.968;2022-08-01T05:23:01;98200.03;;;19.59;100.00
49973;BME280;35865;49.798;10.968;2022-08-01T05:25:27;98192.34;;;19.67;100.00
49973;BME280;35865;49.798;10.968;2022-08-01T05:27:54;98200.59;;;19.70;100.00
49973;BME280;35865;49.798;10.968;2022-08-01T05:30:20;98197.66;;;19.81;100.00
49973;BME280;35865;49.798;10.968;2022-08-01T05:32:47;98194.13;;;19.94;100.00
49973;BME280;35865;49.798;10.968;2022-08-01T05:35:13;98197.81;;;19.98;100.00
49973;BME280;35865;49.798;10.968;2022-08-01T05:37:40;98189.63;;;19.89;100.00
49973;BME280;35865;49.798;10.968;2022-08-01T05:40:08;98191.78;;;20.01;100.00
49973;BME280;35865;49.798;10.968;2022-08-01T05:42:35;98193.47;;;20.20;100.00
49973;BME280;35865;49.798;10.968;2022-08-01T05:45:02;98198.47;;;20.35;100.00
49973;BME280;35865;49.798;10.968;2022-08-01T05:47:29;98194.00;;;20.31;100.00
49973;BME280;35865;49.798;10.968;2022-08-01T05:49:55;98188.41;;;20.58;98.56
49973;BME280;35865;49.798;10.968;2022-08-01T05:52:22;98188.47;;;20.85;97.20
49973;BME280;35865;49.798;10.968;2022-08-01T05:54:48;98181.06;;;20.99;96.52
49973;BME280;35865;49.798;10.968;2022-08-01T05:57:16;98184.44;;;21.13;95.39
49973;BME280;35865;49.798;10.968;2022-08-01T05:59:42;98190.63;;;21.40;94.11
49973;BME280;35865;49.798;10.968;2022-08-01T06:02:09;98185.06;;;21.45;92.17
49973;BME280;35865;49.798;10.968;2022-08-01T06:04:35;98177.91;;;21.67;89.93
49973;BME280;35865;49.798;10.968;2022-08-01T06:07:01;98179.19;;;21.61;89.00
49973;BME280;35865;49.798;10.968;2022-08-01T06:09:28;98178.56;;;21.64;87.85
49973;BME280;35865;49.798;10.968;2022-08-01T06:11:55;98169.03;;;21.58;86.79
49973;BME280;35865;49.798;10.968;2022-08-01T06:14:24;98180.75;;;21.79;86.66
49973;BME280;35865;49.798;10.968;2022-08-01T06:16:50;98183.47;;;21.97;85.77
49973;BME280;35865;49.798;10.968;2022-08-01T06:19:17;98187.09;;;22.01;84.91
49973;BME280;35865;49.798;10.968;2022-08-01T06:21:43;98190.16;;;21.82;85.56
49973;BME280;35865;49.798;10.968;2022-08-01T06:24:09;98196.00;;;21.75;87.65
49973;BME280;35865;49.798;10.968;2022-08-01T06:26:36;98205.72;;;21.85;88.22
49973;BME280;35865;49.798;10.968;2022-08-01T06:29:02;98204.25;;;21.96;87.96
49973;BME280;35865;49.798;10.968;2022-08-01T06:31:30;98197.41;;;22.08;87.13
49973;BME280;35865;49.798;10.968;2022-08-01T06:33:57;98192.16;;;22.11;86.32
49973;BME280;35865;49.798;10.968;2022-08-01T06:36:23;98194.22;;;22.06;85.67
49973;BME280;35865;49.798;10.968;2022-08-01T06:38:50;98192.75;;;22.17;85.27
49973;BME280;35865;49.798;10.968;2022-08-01T06:41:17;98198.44;;;22.33;85.39
49973;BME280;35865;49.798;10.968;2022-08-01T06:43:43;98195.28;;;22.22;86.01
49973;BME280;35865;49.798;10.968;2022-08-01T06:46:10;98213.09;;;22.23;85.56
49973;BME280;35865;49.798;10.968;2022-08-01T06:48:38;98214.09;;;22.48;84.93
49973;BME280;35865;49.798;10.968;2022-08-01T06:51:05;98209.97;;;22.90;83.84
49973;BME280;35865;49.798;10.968;2022-08-01T06:53:35;98201.31;;;23.05;82.61
49973;BME280;35865;49.798;10.968;2022-08-01T06:56:03;98199.44;;;22.97;82.25
49973;BME280;35865;49.798;10.968;2022-08-01T06:58:30;98210.69;;;23.29;81.75
49973;BME280;35865;49.798;10.968;2022-08-01T07:00:56;98208.19;;;23.66;79.87
49973;BME280;35865;49.798;10.968;2022-08-01T07:03:23;98202.38;;;23.55;79.52
49973;BME280;35865;49.798;10.968;2022-08-01T07:05:50;98206.88;;;23.72;78.50
49973;BME280;35865;49.798;10.968;2022-08-01T07:08:17;98203.88;;;23.65;77.92
49973;BME280;35865;49.798;10.968;2022-08-01T07:10:43;98205.06;;;23.76;77.04
49973;BME280;35865;49.798;10.968;2022-08-01T07:13:10;98209.78;;;23.67;76.69
49973;BME280;35865;49.798;10.968;2022-08-01T07:15:37;98214.22;;;23.84;76.45
49973;BME280;35865;49.798;10.968;2022-08-01T07:18:03;98208.25;;;23.91;76.02
49973;BME280;35865;49.798;10.968;2022-08-01T07:20:30;98210.53;;;23.89;75.68
49973;BME280;35865;49.798;10.968;2022-08-01T07:22:57;98213.66;;;24.12;75.76
49973;BME280;35865;49.798;10.968;2022-08-01T07:25:24;98217.66;;;24.39;75.13
49973;BME280;35865;49.798;10.968;2022-08-01T07:27:51;98214.72;;;24.57;74.09
49973;BME280;35865;49.798;10.968;2022-08-01T07:30:17;98218.47;;;24.40;74.57
49973;BME280;35865;49.798;10.968;2022-08-01T07:32:44;98213.56;;;24.33;74.60
49973;BME280;35865;49.798;10.968;2022-08-01T07:35:10;98214.84;;;24.48;73.94
49973;BME280;35865;49.798;10.968;2022-08-01T07:37:37;98217.09;;;24.58;74.54
49973;BME280;35865;49.798;10.968;2022-08-01T07:40:06;98221.53;;;24.88;74.07
49973;BME280;35865;49.798;10.968;2022-08-01T07:42:32;98206.34;;;25.11;72.56
49973;BME280;35865;49.798;10.968;2022-08-01T07:44:58;98215.19;;;25.90;70.08
49973;BME280;35865;49.798;10.968;2022-08-01T07:47:26;98209.69;;;26.02;69.06
49973;BME280;35865;49.798;10.968;2022-08-01T07:49:59;98201.03;;;26.12;66.78
49973;BME280;35865;49.798;10.968;2022-08-01T07:52:26;98206.81;;;26.27;66.77
49973;BME280;35865;49.798;10.968;2022-08-01T07:54:52;98208.84;;;26.46;65.49
49973;BME280;35865;49.798;10.968;2022-08-01T07:57:20;98209.75;;;28.38;62.98
49973;BME280;35865;49.798;10.968;2022-08-01T07:59:46;98200.81;;;28.65;59.75
49973;BME280;35865;49.798;10.968;2022-08-01T08:02:13;98196.81;;;28.59;59.94
49973;BME280;35865;49.798;10.968;2022-08-01T08:04:39;98196.84;;;29.12;58.38
49973;BME280;35865;49.798;10.968;2022-08-01T08:07:06;98191.50;;;28.43;57.99
49973;BME280;35865;49.798;10.968;2022-08-01T08:09:32;98198.75;;;28.12;59.84
49973;BME280;35865;49.798;10.968;2022-08-01T08:11:59;98193.28;;;27.69;60.40
49973;BME280;35865;49.798;10.968;2022-08-01T08:14:26;98190.56;;;26.94;61.75
49973;BME280;35865;49.798;10.968;2022-08-01T08:16:54;98204.47;;;26.73;63.17
49973;BME280;35865;49.798;10.968;2022-08-01T08:19:21;98190.97;;;26.77;63.43
49973;BME280;35865;49.798;10.968;2022-08-01T08:21:47;98193.78;;;26.64;63.43
49973;BME280;35865;49.798;10.968;2022-08-01T08:24:13;98194.91;;;27.15;63.00
49973;BME280;35865;49.798;10.968;2022-08-01T08:26:46;98200.75;;;27.72;61.76
49973;BME280;35865;49.798;10.968;2022-08-01T08:29:13;98190.69;;;27.76;60.70
49973;BME280;35865;49.798;10.968;2022-08-01T08:31:41;98195.13;;;28.04;60.51
49973;BME280;35865;49.798;10.968;2022-08-01T08:34:08;98190.34;;;28.01;59.12
49973;BME280;35865;49.798;10.968;2022-08-01T08:36:35;98185.59;;;27.75;57.74
49973;BME280;35865;49.798;10.968;2022-08-01T08:39:01;98180.84;;;27.13;59.92
49973;BME280;35865;49.798;10.968;2022-08-01T08:41:29;98199.13;;;27.48;60.14
49973;BME280;35865;49.798;10.968;2022-08-01T08:43:55;98196.28;;;27.83;60.29
49973;BME280;35865;49.798;10.968;2022-08-01T08:46:23;98196.94;;;27.77;59.21
49973;BME280;35865;49.798;10.968;2022-08-01T08:48:52;98188.16;;;27.87;58.95
49973;BME280;35865;49.798;10.968;2022-08-01T08:51:19;98184.06;;;28.16;58.28
49973;BME280;35865;49.798;10.968;2022-08-01T08:53:47;98189.34;;;28.79;57.38
49973;BME280;35865;49.798;10.968;2022-08-01T08:56:14;98179.31;;;28.13;57.29
49973;BME280;35865;49.798;10.968;2022-08-01T08:58:44;98189.88;;;28.15;57.78
49973;BME280;35865;49.798;10.968;2022-08-01T09:01:12;98186.25;;;27.87;58.65
49973;BME280;35865;49.798;10.968;2022-08-01T09:03:39;98192.16;;;27.70;58.60
49973;BME280;35865;49.798;10.968;2022-08-01T09:06:07;98191.69;;;27.87;58.60
49973;BME280;35865;49.798;10.968;2022-08-01T09:08:33;98191.75;;;28.84;56.76
49973;BME280;35865;49.798;10.968;2022-08-01T09:11:00;98192.88;;;29.36;55.08
49973;BME280;35865;49.798;10.968;2022-08-01T09:13:26;98187.75;;;28.78;55.07
49973;BME280;35865;49.798;10.968;2022-08-01T09:15:55;98193.91;;;28.71;56.18
49973;BME280;35865;49.798;10.968;2022-08-01T09:18:29;98189.88;;;28.38;56.33
49973;BME280;35865;49.798;10.968;2022-08-01T09:21:14;98189.19;;;28.21;56.21
49973;BME280;35865;49.798;10.968;2022-08-01T09:23:44;98186.28;;;28.34;56.32
49973;BME280;35865;49.798;10.968;2022-08-01T09:26:12;98185.38;;;28.49;56.35
49973;BME280;35865;49.798;10.968;2022-08-01T09:28:39;98183.91;;;28.55;54.65
49973;BME280;35865;49.798;10.968;2022-08-01T09:31:08;98179.47;;;28.47;55.44
49973;BME280;35865;49.798;10.968;2022-08-01T09:33:52;98191.66;;;28.53;56.22
49973;BME280;35865;49.798;10.968;2022-08-01T09:36:23;98188.59;;;28.32;56.83
49973;BME280;35865;49.798;10.968;2022-08-01T09:38:51;98202.72;;;29.14;55.24
49973;BME280;35865;49.798;10.968;2022-08-01T09:41:28;98196.81;;;29.73;52.55
49973;BME280;35865;49.798;10.968;2022-08-01T09:43:56;98193.69;;;30.09;51.51
49973;BME280;35865;49.798;10.968;2022-08-01T09:46:24;98189.34;;;30.04;51.97
49973;BME280;35865;49.798;10.968;2022-08-01T09:48:58;98189.38;;;30.52;51.77
49973;BME280;35865;49.798;10.968;2022-08-01T09:51:32;98199.91;;;31.06;52.20
49973;BME280;35865;49.798;10.968;2022-08-01T09:54:00;98186.84;;;30.81;50.46
49973;BME280;35865;49.798;10.968;2022-08-01T09:56:36;98179.41;;;29.54;50.79
49973;BME280;35865;49.798;10.968;2022-08-01T09:59:02;98185.41;;;28.76;53.62
49973;BME280;35865;49.798;10.968;2022-08-01T10:01:42;98185.38;;;28.73;53.86
49973;BME280;35865;49.798;10.968;2022-08-01T10:04:10;98178.41;;;28.52;53.75
49973;BME280;35865;49.798;10.968;2022-08-01T10:06:39;98182.84;;;28.37;54.33
49973;BME280;35865;49.798;10.968;2022-08-01T10:09:07;98182.78;;;28.10;55.19
49973;BME280;35865;49.798;10.968;2022-08-01T10:11:36;98189.81;;;28.11;55.46
49973;BME280;35865;49.798;10.968;2022-08-01T10:14:04;98189.81;;;28.11;55.53
49973;BME280;35865;49.798;10.968;2022-08-01T10:16:33;98178.59;;;27.54;56.04
49973;BME280;35865;49.798;10.968;2022-08-01T10:19:02;98177.97;;;27.41;56.65
49973;BME280;35865;49.798;10.968;2022-08-01T10:21:29;98196.41;;;27.12;57.65
49973;BME280;35865;49.798;10.968;2022-08-01T10:24:00;98194.47;;;27.32;57.82
49973;BME280;35865;49.798;10.968;2022-08-01T10:26:29;98194.78;;;28.29;55.70
49973;BME280;35865;49.798;10.968;2022-08-01T10:28:57;98176.22;;;28.88;53.84
49973;BME280;35865;49.798;10.968;2022-08-01T10:31:24;98188.13;;;29.33;52.91
49973;BME280;35865;49.798;10.968;2022-08-01T10:33:51;98176.47;;;29.36;51.93
49973;BME280;35865;49.798;10.968;2022-08-01T10:36:19;98182.00;;;29.74;51.88
49973;BME280;35865;49.798;10.968;2022-08-01T10:38:46;98172.72;;;29.48;51.41
49973;BME280;35865;49.798;10.968;2022-08-01T10:41:15;98177.97;;;29.34;51.88
49973;BME280;35865;49.798;10.968;2022-08-01T10:43:42;98173.13;;;29.50;51.77
49973;BME280;35865;49.798;10.968;2022-08-01T10:46:09;98166.03;;;28.85;52.18
49973;BME280;35865;49.798;10.968;2022-08-01T10:48:41;98165.97;;;28.81;52.82
49973;BME280;35865;49.798;10.968;2022-08-01T10:51:09;98182.56;;;28.96;53.87
49973;BME280;35865;49.798;10.968;2022-08-01T10:53:35;98184.03;;;28.63;54.68
49973;BME280;35865;49.798;10.968;2022-08-01T10:56:03;98191.75;;;28.84;54.13
49973;BME280;35865;49.798;10.968;2022-08-01T10:58:34;98180.38;;;28.78;53.58
49973;BME280;35865;49.798;10.968;2022-08-01T11:01:20;98182.84;;;28.64;53.69
49973;BME280;35865;49.798;10.968;2022-08-01T11:04:03;98178.59;;;28.40;53.57
49973;BME280;35865;49.798;10.968;2022-08-01T11:06:41;98184.56;;;28.26;53.68
49973;BME280;35865;49.798;10.968;2022-08-01T11:09:30;98187.38;;;28.06;54.44
49973;BME280;35865;49.798;10.968;2022-08-01T11:11:59;98179.41;;;27.54;55.28
49973;BME280;35865;49.798;10.968;2022-08-01T11:14:28;98195.72;;;27.35;56.14
49973;BME280;35865;49.798;10.968;2022-08-01T11:16:55;98190.22;;;26.96;56.88
49973;BME280;35865;49.798;10.968;2022-08-01T11:19:22;98195.06;;;26.86;57.04
49973;BME280;35865;49.798;10.968;2022-08-01T11:21:58;98187.16;;;26.81;56.20
49973;BME280;35865;49.798;10.968;2022-08-01T11:24:54;98179.38;;;26.64;56.47
49973;BME280;35865;49.798;10.968;2022-08-01T11:27:24;98192.44;;;26.90;56.76
49973;BME280;35865;49.798;10.968;2022-08-01T11:30:23;98193.31;;;26.78;56.94
49973;BME280;35865;49.798;10.968;2022-08-01T11:32:52;98190.97;;;27.12;56.90
49973;BME280;35865;49.798;10.968;2022-08-01T11:35:19;98187.84;;;27.30;55.77
49973;BME280;35865;49.798;10.968;2022-08-01T11:37:48;98184.91;;;27.58;55.34
49973;BME280;35865;49.798;10.968;2022-08-01T11:40:18;98200.59;;;28.50;54.62
49973;BME280;35865;49.798;10.968;2022-08-01T11:42:45;98185.72;;;29.59;52.83
49973;BME280;35865;49.798;10.968;2022-08-01T11:45:11;98187.25;;;30.83;49.36
49973;BME280;35865;49.798;10.968;2022-08-01T11:47:47;98188.81;;;31.65;48.67
49973;BME280;35865;49.798;10.968;2022-08-01T11:50:31;98170.53;;;32.23;46.22
49973;BME280;35865;49.798;10.968;2022-08-01T11:52:59;98170.09;;;32.93;44.41
49973;BME280;35865;49.798;10.968;2022-08-01T11:55:27;98170.06;;;33.08;43.96
49973;BME280;35865;49.798;10.968;2022-08-01T11:57:59;98167.59;;;33.35;43.41
49973;BME280;35865;49.798;10.968;2022-08-01T12:00:26;98159.50;;;33.03;41.96
49973;BME280;35865;49.798;10.968;2022-08-01T12:02:58;98156.81;;;32.23;43.51
49973;BME280;35865;49.798;10.968;2022-08-01T12:05:25;98172.88;;;32.03;44.71
49973;BME280;35865;49.798;10.968;2022-08-01T12:07:53;98158.19;;;31.38;45.34
49973;BME280;35865;49.798;10.968;2022-08-01T12:10:22;98161.59;;;30.54;46.58
49973;BME280;35865;49.798;10.968;2022-08-01T12:12:50;98152.03;;;30.30;46.77
49973;BME280;35865;49.798;10.968;2022-08-01T12:15:18;98160.13;;;30.64;47.00
49973;BME280;35865;49.798;10.968;2022-08-01T12:17:46;98152.34;;;30.69;47.50
49973;BME280;35865;49.798;10.968;2022-08-01T12:20:19;98156.34;;;30.83;47.28
49973;BME280;35865;49.798;10.968;2022-08-01T12:22:46;98157.69;;;31.14;47.26
49973;BME280;35865;49.798;10.968;2022-08-01T12:25:14;98150.91;;;30.86;47.43
49973;BME280;35865;49.798;10.968;2022-08-01T12:27:43;98141.09;;;30.85;47.21
49973;BME280;35865;49.798;10.968;2022-08-01T12:30:11;98135.72;;;31.03;45.85
49973;BME280;35865;49.798;10.968;2022-08-01T12:32:39;98150.53;;;32.34;46.07
49973;BME280;35865;49.798;10.968;2022-08-01T12:35:08;98139.94;;;32.00;45.23
49973;BME280;35865;49.798;10.968;2022-08-01T12:37:37;98138.78;;;32.15;44.41
49973;BME280;35865;49.798;10.968;2022-08-01T12:40:12;98131.69;;;32.39;43.92
49973;BME280;35865;49.798;10.968;2022-08-01T12:42:40;98120.34;;;32.30;42.66
49973;BME280;35865;49.798;10.968;2022-08-01T12:45:08;98121.50;;;32.69;42.15
49973;BME280;35865;49.798;10.968;2022-08-01T12:47:36;98123.28;;;33.19;41.38
49973;BME280;35865;49.798;10.968;2022-08-01T12:50:04;98133.59;;;32.89;42.56
49973;BME280;35865;49.798;10.968;2022-08-01T12:52:31;98131.50;;;33.30;42.07